createdAt,value
2022-11-27T00:01:46.305Z,102300.75
2022-11-27T00:04:13.590Z,102289.41
2022-11-27T00:06:42.992Z,102292.00
2022-11-27T00:09:13.997Z,102293.66
2022-11-27T00:11:41.966Z,102277.09
2022-11-27T00:14:15.265Z,102302.63
2022-11-27T00:16:45.389Z,102289.91
2022-11-27T00:19:13.052Z,102292.88
2022-11-27T00:21:46.046Z,102268.84
2022-11-27T00:24:13.197Z,102269.69
2022-11-27T00:26:44.948Z,102258.38
2022-11-27T00:29:14.524Z,102267.72
2022-11-27T00:31:43.554Z,102253.66
2022-11-27T00:34:13.796Z,102245.59
2022-11-27T00:36:47.827Z,102245.63
2022-11-27T00:39:15.351Z,102234.66
2022-11-27T00:41:44.534Z,102238.09
2022-11-27T00:44:13.631Z,102247.16
2022-11-27T00:46:44.601Z,102242.09
2022-11-27T00:49:25.661Z,102250.75
2022-11-27T00:52:00.567Z,102230.91
2022-11-27T00:54:36.366Z,102234.19
2022-11-27T00:57:05.669Z,102241.53
2022-11-27T00:59:35.466Z,102220.53
2022-11-27T01:02:02.694Z,102216.41
2022-11-27T01:04:34.917Z,102220.19
2022-11-27T01:07:10.303Z,102215.34
2022-11-27T01:09:38.771Z,102204.00
2022-11-27T01:12:10.837Z,102213.91
2022-11-27T01:14:39.362Z,102221.34
2022-11-27T01:17:10.170Z,102234.44
2022-11-27T01:19:38.336Z,102221.28
2022-11-27T01:22:07.946Z,102186.81
2022-11-27T01:24:37.466Z,102201.47
2022-11-27T01:27:05.230Z,102184.09
2022-11-27T01:29:32.793Z,102182.47
2022-11-27T01:32:00.449Z,102200.88
2022-11-27T01:34:30.268Z,102183.53
2022-11-27T01:37:03.406Z,102181.53
2022-11-27T01:39:30.981Z,102193.78
2022-11-27T01:45:19.382Z,102194.06
2022-11-27T01:47:58.290Z,102187.56
2022-11-27T01:50:29.792Z,102182.13
2022-11-27T01:53:10.803Z,102149.91
2022-11-27T01:55:49.500Z,102141.06
2022-11-27T01:58:28.459Z,102138.38
2022-11-27T02:00:55.990Z,102137.31
2022-11-27T02:03:25.869Z,102120.66
2022-11-27T02:05:52.856Z,102116.88
2022-11-27T02:08:19.896Z,102111.34
2022-11-27T02:10:52.186Z,102115.94
2022-11-27T02:13:31.289Z,102119.16
2022-11-27T02:16:15.063Z,102097.56
2022-11-27T02:18:53.479Z,102100.63
2022-11-27T02:21:30.728Z,102106.41
2022-11-27T02:24:05.625Z,102104.75
2022-11-27T02:27:37.640Z,102086.34
2022-11-27T02:30:08.171Z,102094.97
2022-11-27T02:32:57.407Z,102079.50
2022-11-27T02:35:36.830Z,102098.13
2022-11-27T02:38:11.658Z,102074.56
2022-11-27T02:40:51.219Z,102079.88
2022-11-27T02:43:26.506Z,102100.38
2022-11-27T02:45:54.439Z,102103.66
2022-11-27T02:48:31.311Z,102089.41
2022-11-27T02:51:00.006Z,102091.88
2022-11-27T02:53:33.212Z,102095.63
2022-11-27T02:56:02.696Z,102108.25
2022-11-27T02:58:30.872Z,102089.38
2022-11-27T03:01:06.576Z,102089.16
2022-11-27T03:03:49.859Z,102112.59
2022-11-27T03:06:23.859Z,102095.03
2022-11-27T03:08:54.583Z,102091.50
2022-11-27T03:11:23.100Z,102088.16
2022-11-27T03:13:56.282Z,102100.44
2022-11-27T03:16:40.108Z,102093.91
2022-11-27T03:19:38.161Z,102091.44
2022-11-27T03:22:05.832Z,102094.97
2022-11-27T03:24:35.620Z,102087.78
2022-11-27T03:27:03.916Z,102069.13
2022-11-27T03:30:00.437Z,102081.38
2022-11-27T03:32:30.722Z,102054.28
2022-11-27T03:34:58.485Z,102043.88
2022-11-27T03:37:25.604Z,102050.34
2022-11-27T03:39:52.729Z,102048.00
2022-11-27T03:42:46.265Z,102057.19
2022-11-27T03:45:29.913Z,102063.91
2022-11-27T03:48:17.422Z,102064.28
2022-11-27T03:51:01.446Z,102084.69
2022-11-27T03:53:41.605Z,102086.59
2022-11-27T03:56:23.375Z,102072.13
2022-11-27T03:58:50.402Z,102088.22
2022-11-27T04:01:21.157Z,102072.78
2022-11-27T04:03:49.832Z,102081.50
2022-11-27T04:06:17.395Z,102077.03
2022-11-27T04:08:48.812Z,102065.94
2022-11-27T04:11:16.242Z,102073.47
2022-11-27T04:13:43.349Z,102073.13
2022-11-27T04:16:13.585Z,102082.44
2022-11-27T04:18:46.120Z,102067.19
2022-11-27T04:21:13.335Z,102049.88
2022-11-27T04:23:40.963Z,102052.94
2022-11-27T04:26:07.832Z,102041.16
2022-11-27T04:28:35.459Z,102043.41
2022-11-27T04:31:04.954Z,102042.88
2022-11-27T04:33:38.154Z,102039.81
2022-11-27T04:36:11.753Z,102068.22
2022-11-27T04:38:39.514Z,102055.31
2022-11-27T04:41:06.230Z,102034.84
2022-11-27T04:43:33.011Z,102049.56
2022-11-27T04:45:59.858Z,102041.16
2022-11-27T04:48:29.494Z,102045.59
2022-11-27T04:50:58.993Z,102052.53
2022-11-27T04:53:25.947Z,102046.09
2022-11-27T04:55:53.031Z,102055.72
2022-11-27T04:58:19.875Z,102046.41
2022-11-27T05:00:46.731Z,102048.06
2022-11-27T05:03:16.368Z,102044.50
2022-11-27T05:05:43.346Z,102030.22
2022-11-27T05:08:10.284Z,102012.94
2022-11-27T05:10:37.079Z,102018.84
2022-11-27T05:13:07.062Z,102026.56
2022-11-27T05:15:34.143Z,102008.94
2022-11-27T05:18:01.170Z,102010.31
2022-11-27T05:20:28.334Z,102031.88
2022-11-27T05:22:55.479Z,102018.13
2022-11-27T05:25:22.318Z,102008.44
2022-11-27T05:27:50.562Z,101999.75
2022-11-27T05:30:17.866Z,101999.13
2022-11-27T05:32:44.716Z,102007.72
2022-11-27T05:35:17.368Z,101994.75
2022-11-27T05:37:45.408Z,101984.75
2022-11-27T05:40:17.802Z,101983.44
2022-11-27T05:42:49.445Z,101986.38
2022-11-27T05:45:16.612Z,101974.00
2022-11-27T05:47:53.392Z,101961.72
2022-11-27T05:50:20.508Z,101966.16
2022-11-27T05:52:47.636Z,101970.53
2022-11-27T05:55:14.375Z,101970.97
2022-11-27T05:57:43.686Z,101962.03
2022-11-27T06:00:11.311Z,101959.13
2022-11-27T06:02:38.999Z,101970.84
2022-11-27T06:05:06.688Z,101963.75
2022-11-27T06:07:33.548Z,101966.56
2022-11-27T06:10:04.346Z,101972.47
2022-11-27T06:12:32.277Z,101956.16
2022-11-27T06:14:58.990Z,101964.50
2022-11-27T06:17:26.048Z,101965.06
2022-11-27T06:19:52.827Z,101947.03
2022-11-27T06:22:19.620Z,101961.53
2022-11-27T06:24:46.696Z,101942.16
2022-11-27T06:27:16.218Z,101941.69
2022-11-27T06:29:48.488Z,101944.47
2022-11-27T06:32:19.059Z,101958.94
2022-11-27T06:34:46.199Z,101965.78
2022-11-27T06:37:17.937Z,101949.31
2022-11-27T06:39:45.657Z,101933.09
2022-11-27T06:42:12.904Z,101938.72
2022-11-27T06:44:39.976Z,101946.94
2022-11-27T06:47:07.312Z,101927.78
2022-11-27T06:49:35.308Z,101916.81
2022-11-27T06:52:02.039Z,101941.06
2022-11-27T06:54:37.262Z,101919.66
2022-11-27T06:57:07.738Z,101922.44
2022-11-27T06:59:37.323Z,101912.06
2022-11-27T07:02:05.395Z,101915.38
2022-11-27T07:04:36.905Z,101915.09
2022-11-27T07:07:04.313Z,101907.00
2022-11-27T07:09:31.210Z,101897.94
2022-11-27T07:11:58.140Z,101904.13
2022-11-27T07:14:25.337Z,101890.56
2022-11-27T07:16:52.453Z,101885.38
2022-11-27T07:19:22.933Z,101889.41
2022-11-27T07:21:50.042Z,101867.34
2022-11-27T07:24:17.003Z,101857.34
2022-11-27T07:26:44.302Z,101889.41
2022-11-27T07:29:11.436Z,101865.44
2022-11-27T07:31:38.533Z,101852.69
2022-11-27T07:34:10.370Z,101858.78
2022-11-27T07:36:41.224Z,101869.75
2022-11-27T07:39:17.549Z,101851.38
2022-11-27T07:41:49.134Z,101860.75
2022-11-27T07:44:26.237Z,101867.31
2022-11-27T07:46:53.179Z,101846.63
2022-11-27T07:49:26.720Z,101846.81
2022-11-27T07:51:53.716Z,101855.53
2022-11-27T07:54:22.888Z,101852.69
2022-11-27T07:56:55.484Z,101838.56
2022-11-27T07:59:24.790Z,101855.03
2022-11-27T08:01:51.915Z,101858.06
2022-11-27T08:04:20.177Z,101850.97
2022-11-27T08:06:50.131Z,101847.69
2022-11-27T08:09:17.169Z,101846.84
2022-11-27T08:11:44.362Z,101859.06
2022-11-27T08:14:13.939Z,101849.50
2022-11-27T08:16:49.613Z,101853.19
2022-11-27T08:19:27.587Z,101842.66
2022-11-27T08:21:59.036Z,101846.06
2022-11-27T08:24:29.363Z,101855.53
2022-11-27T08:26:59.126Z,101848.16
2022-11-27T08:29:31.191Z,101851.75
2022-11-27T08:32:09.162Z,101851.31
2022-11-27T08:34:36.421Z,101839.53
2022-11-27T08:37:07.314Z,101857.41
2022-11-27T08:39:34.367Z,101837.78
2022-11-27T08:42:04.009Z,101842.75
2022-11-27T08:44:31.016Z,101833.28
2022-11-27T08:47:03.739Z,101836.75
2022-11-27T08:49:30.959Z,101850.41
2022-11-27T08:51:58.056Z,101832.22
2022-11-27T08:54:27.633Z,101843.31
2022-11-27T08:56:54.757Z,101842.63
2022-11-27T08:59:21.801Z,101855.25
2022-11-27T09:01:49.005Z,101828.00
2022-11-27T09:04:18.662Z,101836.19
2022-11-27T09:06:45.668Z,101830.06
2022-11-27T09:09:16.384Z,101835.53
2022-11-27T09:11:43.559Z,101823.09
2022-11-27T09:14:12.086Z,101844.06
2022-11-27T09:16:39.236Z,101823.53
2022-11-27T09:19:14.350Z,101858.03
2022-11-27T09:21:41.557Z,101831.19
2022-11-27T09:24:15.883Z,101835.72
2022-11-27T09:26:46.749Z,101845.72
2022-11-27T09:29:24.321Z,101850.38
2022-11-27T09:31:51.913Z,101811.75
2022-11-27T09:34:19.104Z,101823.91
2022-11-27T09:36:46.363Z,101819.69
2022-11-27T09:39:15.865Z,101817.91
2022-11-27T09:41:50.613Z,101832.00
2022-11-27T09:44:36.786Z,101832.59
2022-11-27T09:47:13.036Z,101823.94
2022-11-27T09:49:46.246Z,101815.03
2022-11-27T09:52:44.594Z,101830.25
2022-11-27T09:55:18.280Z,101826.19
2022-11-27T09:57:55.855Z,101788.50
2022-11-27T10:00:23.045Z,101805.53
2022-11-27T10:02:49.944Z,101791.78
2022-11-27T10:05:19.864Z,101780.56
2022-11-27T10:08:22.308Z,101791.16
2022-11-27T10:11:28.990Z,101770.19
2022-11-27T10:14:22.137Z,101774.56
2022-11-27T10:17:06.395Z,101772.38
2022-11-27T10:20:29.388Z,101781.28
2022-11-27T10:23:22.668Z,101775.94
2022-11-27T10:26:13.473Z,101774.28
2022-11-27T10:29:39.181Z,101770.16
2022-11-27T10:33:00.751Z,101751.69
2022-11-27T10:37:10.310Z,101754.41
2022-11-27T10:44:01.810Z,101747.66
2022-11-27T10:50:19.082Z,101737.81
2022-11-27T11:16:01.420Z,101690.34
2022-11-27T11:22:40.151Z,101655.38
2022-11-27T11:30:11.915Z,101651.81
2022-11-27T11:43:40.638Z,101631.88
2022-11-27T11:48:03.907Z,101624.28
2022-11-27T11:55:30.093Z,101623.88
2022-11-27T11:58:18.606Z,101612.66
2022-11-27T12:04:13.702Z,101596.91
2022-11-27T12:07:36.380Z,101605.31
2022-11-27T12:10:38.647Z,101602.44
2022-11-27T12:13:51.738Z,101595.28
2022-11-27T12:17:04.529Z,101570.59
2022-11-27T12:23:28.825Z,101568.88
2022-11-27T12:26:26.604Z,101568.28
2022-11-27T12:29:55.989Z,101565.81
2022-11-27T12:32:53.045Z,101537.91
2022-11-27T12:35:51.092Z,101547.81
2022-11-27T12:38:43.041Z,101554.34
2022-11-27T12:42:22.788Z,101547.72
2022-11-27T12:48:36.935Z,101517.66
2022-11-27T12:51:17.240Z,101516.59
2022-11-27T12:54:31.479Z,101513.88
2022-11-27T13:01:17.139Z,101528.88
2022-11-27T13:04:29.571Z,101525.84
2022-11-27T13:08:27.034Z,101525.84
2022-11-27T13:11:22.516Z,101492.19
2022-11-27T13:14:43.046Z,101494.66
2022-11-27T13:22:27.150Z,101491.75
2022-11-27T13:25:27.308Z,101492.94
2022-11-27T13:32:10.224Z,101487.97
2022-11-27T13:35:47.959Z,101502.34
2022-11-27T13:38:40.260Z,101486.91
2022-11-27T13:41:26.164Z,101477.41
2022-11-27T13:45:05.300Z,101484.56
2022-11-27T13:48:01.407Z,101464.31
2022-11-27T13:50:31.535Z,101464.00
2022-11-27T13:53:14.633Z,101444.22
2022-11-27T13:55:53.482Z,101456.13
2022-11-27T13:58:39.029Z,101461.94
2022-11-27T14:01:24.308Z,101444.06
2022-11-27T14:03:52.407Z,101434.41
2022-11-27T14:06:29.549Z,101431.88
2022-11-27T14:09:06.149Z,101431.88
2022-11-27T14:11:47.347Z,101417.97
2022-11-27T14:14:33.215Z,101417.69
2022-11-27T14:17:27.811Z,101420.13
2022-11-27T14:20:02.654Z,101411.56
2022-11-27T14:23:10.662Z,101399.75
2022-11-27T14:25:38.101Z,101399.38
2022-11-27T14:28:24.032Z,101416.84
2022-11-27T14:30:54.495Z,101405.72
2022-11-27T14:33:26.349Z,101385.94
2022-11-27T14:36:02.539Z,101394.53
2022-11-27T14:38:50.701Z,101403.31
2022-11-27T14:41:32.061Z,101406.75
2022-11-27T14:44:17.336Z,101395.88
2022-11-27T14:46:44.896Z,101376.78
2022-11-27T14:49:18.804Z,101398.56
2022-11-27T14:51:58.230Z,101371.06
2022-11-27T14:54:33.253Z,101375.16
2022-11-27T14:57:06.981Z,101385.94
2022-11-27T14:59:36.603Z,101369.78
2022-11-27T15:02:18.402Z,101358.72
2022-11-27T15:04:50.245Z,101363.69
2022-11-27T15:07:19.110Z,101374.56
2022-11-27T15:09:50.080Z,101344.50
2022-11-27T15:12:29.010Z,101347.56
2022-11-27T15:15:03.115Z,101366.59
2022-11-27T15:17:37.142Z,101345.94
2022-11-27T15:20:36.571Z,101325.78
2022-11-27T15:23:04.406Z,101344.56
2022-11-27T15:25:46.465Z,101330.41
2022-11-27T15:28:24.096Z,101337.66
2022-11-27T15:30:51.823Z,101321.91
2022-11-27T15:33:34.569Z,101322.00
2022-11-27T15:36:20.069Z,101348.91
2022-11-27T15:38:52.641Z,101315.59
2022-11-27T15:41:35.666Z,101315.81
2022-11-27T15:48:17.780Z,101318.28
2022-11-27T15:50:54.598Z,101291.66
2022-11-27T15:53:25.927Z,101322.88
2022-11-27T15:56:07.330Z,101289.69
2022-11-27T15:58:42.220Z,101290.25
2022-11-27T16:01:17.238Z,101288.91
2022-11-27T16:03:50.398Z,101286.31
2022-11-27T16:06:20.856Z,101306.59
2022-11-27T16:08:57.259Z,101292.63
2022-11-27T16:12:52.811Z,101284.38
2022-11-27T16:15:55.158Z,101274.94
2022-11-27T16:18:56.937Z,101274.19
2022-11-27T16:22:05.165Z,101270.41
2022-11-27T16:28:06.845Z,101292.03
2022-11-27T16:31:17.532Z,101262.16
2022-11-27T16:34:09.065Z,101274.09
2022-11-27T16:36:45.791Z,101277.38
2022-11-27T16:46:46.373Z,101259.16
2022-11-27T16:50:26.417Z,101238.09
2022-11-27T16:53:09.163Z,101236.59
2022-11-27T16:55:47.366Z,101253.66
2022-11-27T16:58:31.716Z,101229.91
2022-11-27T17:01:20.542Z,101251.47
2022-11-27T17:04:10.383Z,101229.38
2022-11-27T17:06:45.143Z,101222.84
2022-11-27T17:09:29.726Z,101215.22
2022-11-27T17:12:27.771Z,101216.19
2022-11-27T17:15:00.311Z,101218.97
2022-11-27T17:17:30.886Z,101210.28
2022-11-27T17:20:36.942Z,101220.63
2022-11-27T17:23:52.183Z,101222.84
2022-11-27T17:27:00.552Z,101206.09
2022-11-27T17:29:36.661Z,101210.38
2022-11-27T17:32:10.236Z,101194.19
2022-11-27T17:41:41.765Z,101199.44
2022-11-27T17:44:20.587Z,101171.00
2022-11-27T17:47:07.802Z,101171.00
2022-11-27T17:49:36.697Z,101161.81
2022-11-27T17:53:30.393Z,101158.72
2022-11-27T17:55:48.359Z,101157.25
2022-11-27T17:58:18.882Z,101150.56
2022-11-27T18:00:48.961Z,101166.84
2022-11-27T18:03:25.285Z,101144.41
2022-11-27T18:06:00.970Z,101144.03
2022-11-27T18:08:40.408Z,101139.31
2022-11-27T18:11:38.163Z,101136.50
2022-11-27T18:14:06.380Z,101146.34
2022-11-27T18:16:42.960Z,101151.41
2022-11-27T18:19:13.985Z,101137.97
2022-11-27T18:21:41.890Z,101148.28
2022-11-27T18:24:28.683Z,101131.28
2022-11-27T18:27:12.041Z,101124.97
2022-11-27T18:29:42.649Z,101137.06
2022-11-27T18:32:12.312Z,101124.31
2022-11-27T18:34:55.759Z,101117.09
2022-11-27T18:37:25.552Z,101122.50
2022-11-27T18:40:07.561Z,101103.16
2022-11-27T18:42:43.372Z,101119.09
2022-11-27T18:45:31.660Z,101102.13
2022-11-27T18:48:08.755Z,101100.38
2022-11-27T18:50:36.076Z,101092.38
2022-11-27T18:53:15.369Z,101103.28
2022-11-27T18:55:52.757Z,101093.88
2022-11-27T18:58:36.728Z,101110.78
2022-11-27T19:01:17.422Z,101100.84
2022-11-27T19:03:48.439Z,101084.22
2022-11-27T19:06:27.569Z,101094.03
2022-11-27T19:08:55.739Z,101077.78
2022-11-27T19:11:23.898Z,101096.03
2022-11-27T19:13:53.928Z,101078.13
2022-11-27T19:16:44.021Z,101057.88
2022-11-27T19:22:07.673Z,101060.34
2022-11-27T19:24:37.719Z,101071.16
2022-11-27T19:27:07.741Z,101049.94
2022-11-27T19:29:44.896Z,101052.22
2022-11-27T19:32:16.372Z,101071.97
2022-11-27T19:35:05.848Z,101045.56
2022-11-27T19:37:40.041Z,101031.41
2022-11-27T19:40:11.162Z,101028.78
2022-11-27T19:42:40.387Z,101032.13
2022-11-27T19:45:09.816Z,101029.38
2022-11-27T19:47:42.469Z,101027.13
2022-11-27T19:50:14.429Z,101015.19
2022-11-27T19:55:55.762Z,100993.91
2022-11-27T19:58:25.738Z,100993.75
2022-11-27T20:00:56.015Z,100997.50
2022-11-27T20:03:25.370Z,100982.03
2022-11-27T20:06:10.008Z,100982.88
2022-11-27T20:08:41.942Z,100975.25
2022-11-27T20:11:19.181Z,100973.47
2022-11-27T20:13:51.196Z,100980.66
2022-11-27T20:16:21.013Z,100981.63
2022-11-27T20:18:51.706Z,100953.63
2022-11-27T20:21:23.342Z,100968.56
2022-11-27T20:23:55.028Z,100982.41
2022-11-27T20:26:28.520Z,100957.97
2022-11-27T20:28:58.435Z,100978.72
2022-11-27T20:31:33.068Z,100953.94
2022-11-27T20:34:06.234Z,100965.34
2022-11-27T20:36:40.462Z,100965.69
2022-11-27T20:39:15.050Z,100964.06
2022-11-27T20:41:47.397Z,100950.38
2022-11-27T20:44:20.856Z,100948.47
2022-11-27T20:46:54.858Z,100932.16
2022-11-27T20:49:26.421Z,100940.97
2022-11-27T20:52:02.326Z,100955.19
2022-11-27T20:54:30.847Z,100939.06
2022-11-27T20:56:59.717Z,100946.06
2022-11-27T20:59:28.135Z,100916.56
2022-11-27T21:01:56.727Z,100915.91
2022-11-27T21:04:26.354Z,100920.16
2022-11-27T21:06:58.556Z,100911.91
2022-11-27T21:09:26.914Z,100925.88
2022-11-27T21:11:54.258Z,100924.47
2022-11-27T21:14:23.941Z,100927.06
2022-11-27T21:16:52.920Z,100905.25
2022-11-27T21:19:25.735Z,100923.38
2022-11-27T21:21:56.088Z,100894.53
2022-11-27T21:24:31.261Z,100900.88
2022-11-27T21:27:10.413Z,100894.34
2022-11-27T21:29:45.828Z,100900.78
2022-11-27T21:33:18.541Z,100913.28
2022-11-27T21:36:18.913Z,100881.63
2022-11-27T21:39:23.388Z,100887.09
2022-11-27T21:42:59.802Z,100864.72
2022-11-27T21:45:32.822Z,100863.28
2022-11-27T21:48:27.991Z,100873.00
2022-11-27T21:54:55.601Z,100853.06
2022-11-27T21:57:37.585Z,100839.03
2022-11-27T22:00:32.268Z,100838.75
2022-11-27T22:03:30.976Z,100833.22
2022-11-27T22:06:31.503Z,100828.88
2022-11-27T22:09:21.459Z,100827.25
2022-11-27T22:12:14.102Z,100830.53
2022-11-27T22:15:32.961Z,100833.31
2022-11-27T22:18:35.395Z,100832.97
2022-11-27T22:21:13.590Z,100829.25
2022-11-27T22:26:31.666Z,100820.47
2022-11-27T22:29:02.301Z,100820.94
2022-11-27T22:31:47.856Z,100835.00
2022-11-27T22:34:27.128Z,100842.00
2022-11-27T22:37:25.869Z,100816.75
2022-11-27T22:39:59.735Z,100827.69
2022-11-27T22:42:52.578Z,100788.16
2022-11-27T22:45:46.079Z,100789.28
2022-11-27T22:48:28.517Z,100798.94
2022-11-27T22:51:01.732Z,100801.19
2022-11-27T22:53:37.294Z,100796.31
2022-11-27T22:56:19.956Z,100776.66
2022-11-27T23:02:37.011Z,100796.50
2022-11-27T23:05:06.640Z,100801.06
2022-11-27T23:07:36.840Z,100789.16
2022-11-27T23:10:27.042Z,100800.06
2022-11-27T23:13:21.598Z,100793.88
2022-11-27T23:19:46.458Z,100800.06
2022-11-27T23:22:29.833Z,100810.00
2022-11-27T23:25:03.542Z,100811.28
2022-11-27T23:30:39.101Z,100784.63
2022-11-27T23:33:33.181Z,100780.38
2022-11-27T23:36:10.863Z,100778.78
2022-11-27T23:38:47.217Z,100788.69
2022-11-27T23:41:21.267Z,100782.34
2022-11-27T23:43:58.707Z,100762.00
2022-11-27T23:49:58.654Z,100768.19
2022-11-27T23:52:37.658Z,100786.72
2022-11-27T23:55:13.062Z,100767.84
2022-11-27T23:58:02.662Z,100775.16
